Wetterdaten: Mittwoch, 05.02.2014
Datum Zeit Temperatur Luftfeuchte Luftdruck Regen Wind Richtung Richtung Taupunkt Windchill Windben
05.02.2014 00:00 -2,8 C 93 % 1009,1 hPa 0,0 l/m 0,8 km/h (0 Bft) O-SO 112 -3,8 C -3,6 C 6,0 km/h (2 Bft)
05.02.2014 00:05 -2,8 C 93 % 1009,0 hPa 0,0 l/m 1,8 km/h (1 Bft) S 180 -3,8 C -3,3 C 2,6 km/h (1 Bft)
05.02.2014 00:10 -3,4 C 93 % 1009,0 hPa 0,0 l/m 1,6 km/h (1 Bft) N-NW 337 -4,4 C -3,4 C 2,1 km/h (1 Bft)
05.02.2014 00:15 -3,7 C 93 % 1009,0 hPa 0,0 l/m 1,1 km/h (1 Bft) N 360 -4,7 C -3,5 C 0,0 km/h (0 Bft)
05.02.2014 00:20 -3,7 C 93 % 1009,0 hPa 0,0 l/m 0,8 km/h (0 Bft) N-NO 22 -4,7 C -3,6 C 4,8 km/h (1 Bft)
05.02.2014 00:25 -3,6 C 93 % 1008,8 hPa 0,0 l/m 0,2 km/h (0 Bft) N-NW 337 -4,6 C -3,7 C 0,0 km/h (0 Bft)
05.02.2014 00:30 -3,1 C 93 % 1008,8 hPa 0,0 l/m 0,3 km/h (0 Bft) NO 45 -4,1 C -3,7 C 0,0 km/h (0 Bft)
05.02.2014 00:35 -3,3 C 93 % 1008,8 hPa 0,0 l/m 0,5 km/h (0 Bft) N-NW 337 -4,3 C -3,5 C 1,9 km/h (1 Bft)
05.02.2014 00:40 -3,7 C 93 % 1008,8 hPa 0,0 l/m 0,2 km/h (0 Bft) N 360 -4,7 C -3,5 C 0,0 km/h (0 Bft)
05.02.2014 00:45 -3,8 C 93 % 1008,7 hPa 0,0 l/m 0,2 km/h (0 Bft) W-SW 247 -4,8 C -3,6 C 0,0 km/h (0 Bft)
05.02.2014 00:50 -3,3 C 93 % 1008,7 hPa 0,0 l/m 0,3 km/h (0 Bft) N-NO 22 -4,3 C -3,6 C 2,6 km/h (1 Bft)
05.02.2014 00:55 -2,8 C 93 % 1008,7 hPa 0,0 l/m 1,0 km/h (0 Bft) N-NO 22 -3,8 C -3,3 C 0,0 km/h (0 Bft)
05.02.2014 01:00 -3,6 C 93 % 1008,7 hPa 0,0 l/m 1,8 km/h (1 Bft) N 360 -4,6 C -3,2 C 5,1 km/h (1 Bft)
05.02.2014 01:03 -3,8 C 93 % 1008,2 hPa 0,0 l/m 1,1 km/h (1 Bft) W-NW 292 -4,8 C -3,4 C 0,0 km/h (0 Bft)
05.02.2014 01:05 -3,8 C 93 % 1008,2 hPa 0,0 l/m 1,1 km/h (1 Bft) W-NW 292 -4,8 C -3,4 C 0,0 km/h (0 Bft)
05.02.2014 01:10 -3,7 C 93 % 1008,2 hPa 0,0 l/m 1,0 km/h (0 Bft) NO 45 -4,7 C -3,5 C 3,1 km/h (1 Bft)
05.02.2014 01:15 -3,9 C 93 % 1008,2 hPa 0,0 l/m 1,0 km/h (0 Bft) N-NO 22 -4,9 C -3,6 C 2,1 km/h (1 Bft)
05.02.2014 01:20 -3,6 C 93 % 1008,2 hPa 0,0 l/m 1,3 km/h (1 Bft) S 180 -4,6 C -3,7 C 3,4 km/h (1 Bft)
05.02.2014 01:25 -3,3 C 93 % 1008,2 hPa 0,0 l/m 1,9 km/h (1 Bft) S 180 -4,3 C -3,5 C 1,8 km/h (1 Bft)
05.02.2014 01:30 -4,1 C 93 % 1008,2 hPa 0,0 l/m 1,4 km/h (1 Bft) NW 315 -5,1 C -3,6 C 1,8 km/h (1 Bft)
05.02.2014 01:35 -3,8 C 93 % 1008,2 hPa 0,0 l/m 1,3 km/h (1 Bft) N 360 -4,8 C -3,8 C 3,1 km/h (1 Bft)
05.02.2014 01:40 -3,8 C 93 % 1008,2 hPa 0,0 l/m 2,3 km/h (1 Bft) S-SO 157 -4,8 C -4,2 C 3,4 km/h (1 Bft)
05.02.2014 01:45 -3,9 C 93 % 1007,9 hPa 0,0 l/m 2,4 km/h (1 Bft) NO 45 -4,9 C -4,3 C 4,3 km/h (1 Bft)
05.02.2014 01:50 -3,9 C 93 % 1007,9 hPa 0,0 l/m 1,4 km/h (1 Bft) N-NO 22 -4,9 C -4,1 C 0,0 km/h (0 Bft)
05.02.2014 01:55 -3,7 C 93 % 1007,9 hPa 0,0 l/m 0,8 km/h (0 Bft) S 180 -4,7 C -4,1 C 0,0 km/h (0 Bft)
05.02.2014 02:00 -4,0 C 93 % 1007,9 hPa 0,0 l/m 0,3 km/h (0 Bft) N 360 -5,0 C -4,2 C 4,3 km/h (1 Bft)
05.02.2014 02:05 -3,9 C 93 % 1007,8 hPa 0,0 l/m 1,0 km/h (0 Bft) W-SW 247 -4,9 C -4,2 C 2,7 km/h (1 Bft)
05.02.2014 02:10 -3,7 C 93 % 1007,8 hPa 0,0 l/m 1,8 km/h (1 Bft) W-SW 247 -4,7 C -4,0 C 3,4 km/h (1 Bft)
05.02.2014 02:15 -4,2 C 93 % 1007,8 hPa 0,0 l/m 1,4 km/h (1 Bft) W-SW 247 -5,2 C -4,0 C 0,0 km/h (0 Bft)
05.02.2014 02:20 -4,3 C 93 % 1007,8 hPa 0,0 l/m 1,4 km/h (1 Bft) S-SO 157 -5,3 C -4,2 C 0,0 km/h (0 Bft)
05.02.2014 02:25 -3,4 C 93 % 1007,8 hPa 0,0 l/m 2,4 km/h (1 Bft) O-NO 67 -4,4 C -4,4 C 5,8 km/h (2 Bft)
05.02.2014 02:30 -3,9 C 93 % 1007,8 hPa 0,0 l/m 1,8 km/h (1 Bft) SO 135 -4,9 C -3,9 C 6,4 km/h (2 Bft)
05.02.2014 02:35 -4,2 C 93 % 1007,8 hPa 0,0 l/m 1,0 km/h (0 Bft) N 360 -5,2 C -4,1 C 2,1 km/h (1 Bft)
05.02.2014 02:40 -4,3 C 93 % 1007,8 hPa 0,0 l/m 1,1 km/h (1 Bft) S 180 -5,3 C -4,2 C 2,9 km/h (1 Bft)
05.02.2014 02:45 -4,0 C 93 % 1007,4 hPa 0,0 l/m 1,4 km/h (1 Bft) N-NO 22 -5,0 C -4,2 C 1,8 km/h (1 Bft)
05.02.2014 02:50 -4,0 C 93 % 1007,4 hPa 0,0 l/m 1,1 km/h (1 Bft) N-NO 22 -5,0 C -4,2 C 2,3 km/h (1 Bft)
05.02.2014 02:55 -3,8 C 93 % 1007,4 hPa 0,0 l/m 1,3 km/h (1 Bft) S 180 -4,8 C -4,1 C 3,9 km/h (1 Bft)
05.02.2014 03:00 -3,9 C 93 % 1007,4 hPa 0,0 l/m 1,1 km/h (1 Bft) N 360 -4,9 C -4,0 C 0,0 km/h (0 Bft)
05.02.2014 03:05 -4,3 C 93 % 1007,2 hPa 0,0 l/m 0,8 km/h (0 Bft) W-NW 292 -5,3 C -4,1 C 2,1 km/h (1 Bft)
05.02.2014 03:10 -4,1 C 93 % 1007,2 hPa 0,0 l/m 0,6 km/h (0 Bft) N-NO 22 -5,1 C -4,2 C 0,0 km/h (0 Bft)
05.02.2014 03:15 -4,0 C 93 % 1007,2 hPa 0,0 l/m 0,8 km/h (0 Bft) W-SW 247 -5,0 C -4,2 C 0,0 km/h (0 Bft)
05.02.2014 03:20 -4,3 C 93 % 1007,2 hPa 0,0 l/m 0,5 km/h (0 Bft) W-SW 247 -5,3 C -4,1 C 0,0 km/h (0 Bft)
05.02.2014 03:25 -4,3 C 92 % 1007,1 hPa 0,0 l/m 0,3 km/h (0 Bft) N 360 -5,4 C -4,1 C 1,9 km/h (1 Bft)
05.02.2014 03:30 -4,2 C 93 % 1007,1 hPa 0,0 l/m 0,3 km/h (0 Bft) W-SW 247 -5,2 C -4,1 C 0,0 km/h (0 Bft)
05.02.2014 03:35 -4,3 C 92 % 1007,1 hPa 0,0 l/m 0,3 km/h (0 Bft) W-NW 292 -5,4 C -4,1 C 0,0 km/h (0 Bft)
05.02.2014 03:40 -3,5 C 93 % 1007,1 hPa 0,0 l/m 0,3 km/h (0 Bft) N-NO 22 -4,5 C -3,8 C 0,0 km/h (0 Bft)
05.02.2014 03:45 -3,9 C 93 % 1006,8 hPa 0,0 l/m 0,6 km/h (0 Bft) W-SW 247 -4,9 C -3,6 C 0,0 km/h (0 Bft)
05.02.2014 03:50 -4,4 C 93 % 1006,8 hPa 0,0 l/m 0,3 km/h (0 Bft) W-SW 247 -5,4 C -4,0 C 0,0 km/h (0 Bft)
05.02.2014 03:55 -4,4 C 93 % 1006,8 hPa 0,0 l/m 0,0 km/h (0 Bft) W-SW 247 -5,4 C -4,1 C 0,0 km/h (0 Bft)
05.02.2014 04:00 -3,7 C 93 % 1006,8 hPa 0,0 l/m 0,6 km/h (0 Bft) N-NO 22 -4,7 C -4,2 C 2,1 km/h (1 Bft)
05.02.2014 04:05 -3,4 C 93 % 1006,6 hPa 0,0 l/m 1,1 km/h (1 Bft) N-NO 22 -4,4 C -3,9 C 0,0 km/h (0 Bft)
05.02.2014 04:10 -4,2 C 93 % 1006,6 hPa 0,0 l/m 0,5 km/h (0 Bft) NW 315 -5,2 C -3,8 C 0,0 km/h (0 Bft)
05.02.2014 04:15 -4,0 C 93 % 1006,6 hPa 0,0 l/m 0,0 km/h (0 Bft) NW 315 -5,0 C -3,9 C 0,0 km/h (0 Bft)
05.02.2014 04:20 -4,1 C 93 % 1006,6 hPa 0,0 l/m 0,0 km/h (0 Bft) N-NW 337 -5,1 C -4,0 C 0,0 km/h (0 Bft)
05.02.2014 04:25 -4,2 C 93 % 1006,2 hPa 0,0 l/m 0,0 km/h (0 Bft) W-SW 247 -5,2 C -4,0 C 0,0 km/h (0 Bft)
05.02.2014 04:30 -4,0 C 93 % 1006,2 hPa 0,0 l/m 1,0 km/h (0 Bft) NO 45 -5,0 C -4,2 C 4,3 km/h (1 Bft)
05.02.2014 04:35 -3,4 C 93 % 1006,2 hPa 0,0 l/m 1,4 km/h (1 Bft) N-NO 22 -4,4 C -4,1 C 0,0 km/h (0 Bft)
05.02.2014 04:40 -4,0 C 93 % 1006,2 hPa 0,0 l/m 0,8 km/h (0 Bft) N-NO 22 -5,0 C -4,0 C 0,0 km/h (0 Bft)
05.02.2014 04:45 -3,9 C 93 % 1006,1 hPa 0,0 l/m 0,3 km/h (0 Bft) NO 45 -4,9 C -3,9 C 2,6 km/h (1 Bft)
05.02.2014 04:50 -4,1 C 93 % 1006,1 hPa 0,0 l/m 0,5 km/h (0 Bft) N-NW 337 -5,1 C -3,5 C 0,0 km/h (0 Bft)
05.02.2014 04:55 -4,3 C 93 % 1006,1 hPa 0,0 l/m 0,2 km/h (0 Bft) NW 315 -5,3 C -3,7 C 0,0 km/h (0 Bft)
05.02.2014 05:00 -4,1 C 93 % 1006,1 hPa 0,0 l/m 0,0 km/h (0 Bft) N 360 -5,1 C -4,1 C 0,0 km/h (0 Bft)
05.02.2014 05:05 -3,8 C 93 % 1005,7 hPa 0,0 l/m 0,0 km/h (0 Bft) N-NO 22 -4,8 C -4,2 C 0,0 km/h (0 Bft)
05.02.2014 05:10 -3,9 C 93 % 1005,7 hPa 0,0 l/m 0,5 km/h (0 Bft) NO 45 -4,9 C -3,8 C 3,2 km/h (1 Bft)
05.02.2014 05:15 -3,7 C 93 % 1005,7 hPa 0,0 l/m 0,6 km/h (0 Bft) N 360 -4,7 C -3,2 C 0,0 km/h (0 Bft)
05.02.2014 05:20 -3,9 C 93 % 1005,7 hPa 0,0 l/m 1,8 km/h (1 Bft) W-SW 247 -4,9 C -3,1 C 0,0 km/h (0 Bft)
05.02.2014 05:25 -3,7 C 93 % 1005,8 hPa 0,0 l/m 1,9 km/h (1 Bft) N 360 -4,7 C -3,4 C 2,1 km/h (1 Bft)
05.02.2014 05:30 -3,4 C 93 % 1005,8 hPa 0,0 l/m 1,0 km/h (0 Bft) W-SW 247 -4,4 C -3,2 C 0,0 km/h (0 Bft)
05.02.2014 05:35 -3,8 C 93 % 1005,8 hPa 0,0 l/m 0,5 km/h (0 Bft) W-SW 247 -4,8 C -3,2 C 0,0 km/h (0 Bft)
05.02.2014 05:40 -3,3 C 93 % 1005,8 hPa 0,0 l/m 0,0 km/h (0 Bft) W 270 -4,3 C -2,9 C 0,0 km/h (0 Bft)
05.02.2014 05:45 -3,0 C 93 % 1005,4 hPa 0,0 l/m 0,2 km/h (0 Bft) NO 45 -4,0 C -2,6 C 1,6 km/h (1 Bft)
05.02.2014 05:50 -2,3 C 93 % 1005,4 hPa 0,0 l/m 0,2 km/h (0 Bft) NO 45 -3,3 C -2,2 C 1,8 km/h (1 Bft)
05.02.2014 05:55 -2,4 C 93 % 1005,4 hPa 0,0 l/m 0,6 km/h (0 Bft) NO 45 -3,4 C -2,1 C 1,8 km/h (1 Bft)
05.02.2014 06:00 -3,0 C 93 % 1005,4 hPa 0,0 l/m 1,4 km/h (1 Bft) O-NO 67 -4,0 C -2,1 C 3,4 km/h (1 Bft)
05.02.2014 06:05 -2,9 C 93 % 1005,3 hPa 0,0 l/m 1,6 km/h (1 Bft) N 360 -3,9 C -2,3 C 1,6 km/h (1 Bft)
05.02.2014 06:10 -1,6 C 93 % 1005,3 hPa 0,0 l/m 2,9 km/h (1 Bft) O 90 -2,6 C -2,3 C 5,3 km/h (1 Bft)
05.02.2014 06:15 -1,3 C 94 % 1005,3 hPa 0,0 l/m 3,7 km/h (1 Bft) O-NO 67 -2,1 C -2,7 C 6,0 km/h (2 Bft)
05.02.2014 06:20 -1,3 C 94 % 1005,3 hPa 0,0 l/m 3,7 km/h (1 Bft) NO 45 -2,1 C -2,4 C 6,8 km/h (2 Bft)
05.02.2014 06:25 -1,3 C 94 % 1005,3 hPa 0,0 l/m 3,4 km/h (1 Bft) NO 45 -2,1 C -2,1 C 3,9 km/h (1 Bft)
05.02.2014 06:30 -1,1 C 94 % 1005,3 hPa 0,0 l/m 3,7 km/h (1 Bft) O-NO 67 -1,9 C -2,1 C 7,1 km/h (2 Bft)
05.02.2014 06:35 -0,9 C 94 % 1005,3 hPa 0,0 l/m 4,0 km/h (1 Bft) O 90 -1,7 C -2,2 C 5,5 km/h (1 Bft)
05.02.2014 06:40 -0,9 C 94 % 1005,3 hPa 0,0 l/m 5,3 km/h (1 Bft) O 90 -1,7 C -2,7 C 7,6 km/h (2 Bft)
05.02.2014 06:45 -0,7 C 94 % 1005,2 hPa 0,0 l/m 5,8 km/h (2 Bft) NO 45 -1,5 C -2,8 C 7,1 km/h (2 Bft)
05.02.2014 06:50 -0,8 C 94 % 1005,2 hPa 0,0 l/m 6,3 km/h (2 Bft) NO 45 -1,6 C -2,8 C 9,0 km/h (2 Bft)
05.02.2014 06:55 -0,7 C 94 % 1005,2 hPa 0,0 l/m 6,0 km/h (2 Bft) NO 45 -1,5 C -2,7 C 6,3 km/h (2 Bft)
05.02.2014 07:00 -0,5 C 93 % 1005,2 hPa 0,0 l/m 6,0 km/h (2 Bft) W-SW 247 -1,5 C -2,7 C 9,7 km/h (2 Bft)
05.02.2014 07:03 -0,2 C 93 % 1004,9 hPa 0,0 l/m 5,8 km/h (2 Bft) N-NO 22 -1,2 C -2,7 C 6,1 km/h (2 Bft)
05.02.2014 07:05 -0,2 C 93 % 1004,9 hPa 0,0 l/m 5,8 km/h (2 Bft) N-NO 22 -1,2 C -2,7 C 6,1 km/h (2 Bft)
05.02.2014 07:10 0,4 C 93 % 1004,9 hPa 0,0 l/m 5,3 km/h (1 Bft) O 90 -0,6 C -2,3 C 7,4 km/h (2 Bft)
05.02.2014 07:15 0,6 C 92 % 1004,9 hPa 0,0 l/m 5,6 km/h (1 Bft) O 90 -0,5 C -2,4 C 7,4 km/h (2 Bft)
05.02.2014 07:20 0,8 C 89 % 1004,9 hPa 0,0 l/m 6,4 km/h (2 Bft) O 90 -0,8 C -2,6 C 11,1 km/h (2 Bft)
05.02.2014 07:25 0,9 C 83 % 1004,9 hPa 0,0 l/m 6,4 km/h (2 Bft) O 90 -1,7 C -2,3 C 6,6 km/h (2 Bft)
05.02.2014 07:30 1,3 C 79 % 1004,9 hPa 0,0 l/m 5,8 km/h (2 Bft) O-NO 67 -1,9 C -1,9 C 3,7 km/h (1 Bft)
05.02.2014 07:35 1,6 C 78 % 1004,9 hPa 0,0 l/m 4,5 km/h (1 Bft) NO 45 -1,8 C -1,1 C 4,7 km/h (1 Bft)
05.02.2014 07:40 1,7 C 75 % 1004,9 hPa 0,0 l/m 2,9 km/h (1 Bft) N-NO 22 -2,2 C 0,1 C 4,8 km/h (1 Bft)
05.02.2014 07:45 1,7 C 73 % 1004,8 hPa 0,0 l/m 2,6 km/h (1 Bft) N-NO 22 -2,6 C 0,4 C 2,1 km/h (1 Bft)
05.02.2014 07:50 1,8 C 73 % 1004,8 hPa 0,0 l/m 3,1 km/h (1 Bft) O-SO 112 -2,5 C 0,3 C 3,4 km/h (1 Bft)
05.02.2014 07:55 1,6 C 73 % 1004,8 hPa 0,0 l/m 2,7 km/h (1 Bft) W-SW 247 -2,7 C 0,7 C 6,8 km/h (2 Bft)
05.02.2014 08:00 0,1 C 73 % 1004,8 hPa 0,0 l/m 2,3 km/h (1 Bft) O-SO 112 -4,2 C 0,3 C 2,6 km/h (1 Bft)
05.02.2014 08:05 -0,1 C 74 % 1004,8 hPa 0,0 l/m 2,3 km/h (1 Bft) N-NW 337 -4,2 C -0,2 C 2,6 km/h (1 Bft)
05.02.2014 08:10 -0,8 C 75 % 1004,8 hPa 0,0 l/m 2,3 km/h (1 Bft) S 180 -4,7 C -0,6 C 1,6 km/h (1 Bft)
05.02.2014 08:15 -0,3 C 76 % 1004,8 hPa 0,0 l/m 2,4 km/h (1 Bft) O-NO 67 -4,0 C -0,8 C 3,1 km/h (1 Bft)
05.02.2014 08:20 1,3 C 77 % 1004,8 hPa 0,0 l/m 2,4 km/h (1 Bft) O-SO 112 -2,3 C 0,0 C 4,8 km/h (1 Bft)
05.02.2014 08:25 2,1 C 76 % 1004,8 hPa 0,0 l/m 2,1 km/h (1 Bft) N 360 -1,7 C 0,6 C 1,8 km/h (1 Bft)
05.02.2014 08:30 2,4 C 75 % 1004,8 hPa 0,0 l/m 1,9 km/h (1 Bft) O 90 -1,6 C 1,3 C 1,9 km/h (1 Bft)
05.02.2014 08:35 3,0 C 72 % 1004,8 hPa 0,0 l/m 2,1 km/h (1 Bft) N 360 -1,5 C 1,8 C 3,2 km/h (1 Bft)
05.02.2014 08:40 2,7 C 71 % 1004,8 hPa 0,0 l/m 2,4 km/h (1 Bft) S 180 -2,0 C 2,4 C 5,0 km/h (1 Bft)
05.02.2014 08:45 1,6 C 69 % 1004,7 hPa 0,0 l/m 2,6 km/h (1 Bft) NW 315 -3,5 C 2,1 C 2,9 km/h (1 Bft)
05.02.2014 08:50 1,8 C 71 % 1004,7 hPa 0,0 l/m 2,3 km/h (1 Bft) W 270 -2,9 C 1,8 C 4,7 km/h (1 Bft)
05.02.2014 08:55 1,3 C 72 % 1004,7 hPa 0,0 l/m 2,3 km/h (1 Bft) N-NO 22 -3,2 C 1,9 C 4,5 km/h (1 Bft)
05.02.2014 09:00 2,0 C 71 % 1004,7 hPa 0,0 l/m 2,4 km/h (1 Bft) W-SW 247 -2,7 C 2,3 C 0,0 km/h (0 Bft)
05.02.2014 09:05 2,0 C 69 % 1004,7 hPa 0,0 l/m 2,7 km/h (1 Bft) N 360 -3,1 C 2,7 C 2,1 km/h (1 Bft)
05.02.2014 09:10 1,6 C 72 % 1004,7 hPa 0,0 l/m 1,4 km/h (1 Bft) S 180 -2,9 C 2,6 C 4,2 km/h (1 Bft)
05.02.2014 09:15 1,6 C 72 % 1004,7 hPa 0,0 l/m 1,1 km/h (1 Bft) S 180 -2,9 C 2,4 C 1,9 km/h (1 Bft)
05.02.2014 09:20 2,1 C 72 % 1004,7 hPa 0,0 l/m 1,6 km/h (1 Bft) N-NO 22 -2,4 C 2,4 C 2,9 km/h (1 Bft)
05.02.2014 09:25 2,7 C 69 % 1004,6 hPa 0,0 l/m 1,8 km/h (1 Bft) NO 45 -2,4 C 2,7 C 3,5 km/h (1 Bft)
05.02.2014 09:30 4,0 C 66 % 1004,6 hPa 0,0 l/m 2,7 km/h (1 Bft) N-NW 337 -1,8 C 4,1 C 3,5 km/h (1 Bft)
05.02.2014 09:35 4,8 C 66 % 1004,6 hPa 0,0 l/m 3,1 km/h (1 Bft) S-SO 157 -1,0 C 5,2 C 2,7 km/h (1 Bft)
05.02.2014 09:40 5,0 C 71 % 1004,6 hPa 0,0 l/m 2,1 km/h (1 Bft) W 270 0,2 C 6,3 C 4,5 km/h (1 Bft)
05.02.2014 09:45 5,2 C 65 % 1004,4 hPa 0,0 l/m 2,7 km/h (1 Bft) N 360 -0,8 C 6,8 C 9,7 km/h (2 Bft)
05.02.2014 09:50 6,1 C 70 % 1004,4 hPa 0,0 l/m 3,9 km/h (1 Bft) NO 45 1,0 C 7,7 C 5,8 km/h (2 Bft)
05.02.2014 09:55 6,2 C 74 % 1004,4 hPa 0,0 l/m 3,4 km/h (1 Bft) O-SO 112 1,9 C 8,0 C 2,1 km/h (1 Bft)
05.02.2014 10:00 6,2 C 69 % 1004,4 hPa 0,0 l/m 3,4 km/h (1 Bft) W-NW 292 0,9 C 8,2 C 5,1 km/h (1 Bft)
05.02.2014 10:05 6,3 C 71 % 1004,4 hPa 0,0 l/m 3,2 km/h (1 Bft) N-NW 337 1,4 C 8,2 C 4,2 km/h (1 Bft)
05.02.2014 10:10 6,5 C 76 % 1004,4 hPa 0,0 l/m 2,6 km/h (1 Bft) O-SO 112 2,6 C 8,5 C 3,4 km/h (1 Bft)
05.02.2014 10:15 6,8 C 79 % 1004,4 hPa 0,0 l/m 2,4 km/h (1 Bft) NO 45 3,4 C 8,7 C 1,8 km/h (1 Bft)
05.02.2014 10:20 7,3 C 66 % 1004,4 hPa 0,0 l/m 2,4 km/h (1 Bft) NO 45 1,4 C 10,0 C 4,3 km/h (1 Bft)
05.02.2014 10:25 7,7 C 73 % 1004,2 hPa 0,0 l/m 3,1 km/h (1 Bft) O 90 3,2 C 10,4 C 5,8 km/h (2 Bft)
05.02.2014 10:30 7,9 C 72 % 1004,2 hPa 0,0 l/m 2,9 km/h (1 Bft) N 360 3,2 C 10,3 C 3,7 km/h (1 Bft)
05.02.2014 10:35 7,8 C 60 % 1004,2 hPa 0,0 l/m 3,4 km/h (1 Bft) W-NW 292 0,5 C 10,2 C 6,1 km/h (2 Bft)
05.02.2014 10:40 7,9 C 71 % 1004,2 hPa 0,0 l/m 3,1 km/h (1 Bft) N-NO 22 3,0 C 10,0 C 2,4 km/h (1 Bft)
05.02.2014 10:45 8,2 C 62 % 1003,8 hPa 0,0 l/m 2,6 km/h (1 Bft) N 360 1,4 C 9,9 C 6,4 km/h (2 Bft)
05.02.2014 10:50 8,0 C 55 % 1003,8 hPa 0,0 l/m 3,5 km/h (1 Bft) N-NW 337 -0,5 C 9,8 C 7,1 km/h (2 Bft)
05.02.2014 10:55 8,2 C 57 % 1003,8 hPa 0,0 l/m 4,5 km/h (1 Bft) S-SO 157 0,2 C 9,7 C 7,6 km/h (2 Bft)
05.02.2014 11:00 8,2 C 55 % 1003,8 hPa 0,0 l/m 3,9 km/h (1 Bft) NO 45 -0,3 C 9,7 C 5,1 km/h (1 Bft)
05.02.2014 11:05 8,2 C 50 % 1004,1 hPa 0,0 l/m 3,7 km/h (1 Bft) NO 45 -1,6 C 9,6 C 5,0 km/h (1 Bft)
05.02.2014 11:10 8,4 C 54 % 1004,1 hPa 0,0 l/m 2,7 km/h (1 Bft) W-SW 247 -0,4 C 9,7 C 0,0 km/h (0 Bft)
05.02.2014 11:15 8,5 C 50 % 1004,1 hPa 0,0 l/m 2,7 km/h (1 Bft) N-NO 22 -1,3 C 9,8 C 1,9 km/h (1 Bft)
05.02.2014 11:20 8,3 C 50 % 1004,1 hPa 0,0 l/m 2,6 km/h (1 Bft) W-NW 292 -1,5 C 9,9 C 1,6 km/h (1 Bft)
05.02.2014 11:25 8,4 C 50 % 1004,3 hPa 0,0 l/m 2,4 km/h (1 Bft) O-SO 112 -1,4 C 9,8 C 6,9 km/h (2 Bft)
05.02.2014 11:30 8,9 C 46 % 1004,3 hPa 0,0 l/m 4,2 km/h (1 Bft) O 90 -2,1 C 10,0 C 6,8 km/h (2 Bft)
05.02.2014 11:35 8,9 C 44 % 1004,3 hPa 0,0 l/m 5,5 km/h (1 Bft) SO 135 -2,7 C 9,9 C 5,6 km/h (1 Bft)
05.02.2014 11:40 9,2 C 42 % 1004,3 hPa 0,0 l/m 5,6 km/h (1 Bft) S 180 -3,0 C 10,1 C 7,6 km/h (2 Bft)
05.02.2014 11:45 9,1 C 43 % 1003,7 hPa 0,0 l/m 5,3 km/h (1 Bft) O 90 -2,8 C 10,5 C 3,1 km/h (1 Bft)
05.02.2014 11:50 9,6 C 42 % 1003,7 hPa 0,0 l/m 3,9 km/h (1 Bft) W-SW 247 -2,7 C 10,9 C 11,4 km/h (2 Bft)
05.02.2014 11:55 10,0 C 39 % 1003,7 hPa 0,0 l/m 4,3 km/h (1 Bft) NO 45 -3,3 C 11,2 C 5,0 km/h (1 Bft)
05.02.2014 12:00 9,9 C 44 % 1003,7 hPa 0,0 l/m 4,0 km/h (1 Bft) W-NW 292 -1,8 C 11,4 C 11,9 km/h (2 Bft)
05.02.2014 12:05 10,2 C 41 % 1003,9 hPa 0,0 l/m 3,4 km/h (1 Bft) S 180 -2,5 C 12,0 C 5,1 km/h (1 Bft)
05.02.2014 12:10 10,6 C 41 % 1003,9 hPa 0,0 l/m 3,4 km/h (1 Bft) NO 45 -2,1 C 12,6 C 0,0 km/h (0 Bft)
05.02.2014 12:15 10,8 C 41 % 1003,9 hPa 0,0 l/m 2,9 km/h (1 Bft) O-SO 112 -1,9 C 12,8 C 0,0 km/h (0 Bft)
05.02.2014 12:20 10,7 C 38 % 1003,9 hPa 0,0 l/m 2,4 km/h (1 Bft) N-NW 337 -3,0 C 12,8 C 7,6 km/h (2 Bft)
05.02.2014 12:25 10,9 C 40 % 1003,8 hPa 0,0 l/m 3,1 km/h (1 Bft) W-NW 292 -2,2 C 13,1 C 2,3 km/h (1 Bft)
05.02.2014 12:30 11,0 C 41 % 1003,8 hPa 0,0 l/m 4,0 km/h (1 Bft) W-NW 292 -1,7 C 13,7 C 0,0 km/h (0 Bft)
05.02.2014 12:35 11,2 C 39 % 1003,8 hPa 0,0 l/m 3,1 km/h (1 Bft) S-SO 157 -2,2 C 15,2 C 4,2 km/h (1 Bft)
05.02.2014 12:40 10,8 C 37 % 1003,8 hPa 0,0 l/m 3,2 km/h (1 Bft) O-SO 112 -3,3 C 16,6 C 7,7 km/h (2 Bft)
05.02.2014 12:45 10,0 C 41 % 1003,9 hPa 0,0 l/m 3,9 km/h (1 Bft) W-SW 247 -2,6 C 16,9 C 3,9 km/h (1 Bft)
05.02.2014 12:50 10,1 C 39 % 1003,9 hPa 0,0 l/m 4,0 km/h (1 Bft) SO 135 -3,2 C 17,1 C 6,9 km/h (2 Bft)
05.02.2014 12:55 10,0 C 42 % 1003,9 hPa 0,0 l/m 3,5 km/h (1 Bft) W-SW 247 -2,3 C 17,3 C 3,7 km/h (1 Bft)
05.02.2014 13:00 10,3 C 38 % 1003,9 hPa 0,0 l/m 3,2 km/h (1 Bft) N 360 -3,4 C 17,6 C 6,3 km/h (2 Bft)
05.02.2014 13:03 10,5 C 39 % 1003,9 hPa 0,0 l/m 3,7 km/h (1 Bft) O 90 -2,9 C 18,2 C 6,4 km/h (2 Bft)
05.02.2014 13:05 10,5 C 39 % 1003,9 hPa 0,0 l/m 3,7 km/h (1 Bft) O 90 -2,9 C 18,2 C 6,4 km/h (2 Bft)
05.02.2014 13:10 10,3 C 40 % 1003,9 hPa 0,0 l/m 4,3 km/h (1 Bft) N 360 -2,7 C 17,2 C 6,1 km/h (2 Bft)
05.02.2014 13:15 10,3 C 39 % 1003,9 hPa 0,0 l/m 4,2 km/h (1 Bft) NO 45 -3,0 C 17,2 C 6,3 km/h (2 Bft)
05.02.2014 13:20 10,3 C 39 % 1003,9 hPa 0,0 l/m 3,9 km/h (1 Bft) N 360 -3,0 C 17,8 C 5,5 km/h (1 Bft)
05.02.2014 13:25 10,5 C 39 % 1003,9 hPa 0,0 l/m 4,0 km/h (1 Bft) W 270 -2,9 C 18,2 C 8,2 km/h (2 Bft)
05.02.2014 13:30 10,6 C 39 % 1003,9 hPa 0,0 l/m 4,0 km/h (1 Bft) NO 45 -2,8 C 17,1 C 4,0 km/h (1 Bft)
05.02.2014 13:35 10,7 C 40 % 1003,9 hPa 0,0 l/m 3,7 km/h (1 Bft) N-NW 337 -2,3 C 16,7 C 2,9 km/h (1 Bft)
05.02.2014 13:40 10,8 C 40 % 1003,9 hPa 0,0 l/m 3,1 km/h (1 Bft) N-NW 337 -2,2 C 16,0 C 4,0 km/h (1 Bft)
05.02.2014 13:45 10,6 C 40 % 1003,9 hPa 0,0 l/m 3,4 km/h (1 Bft) N-NW 337 -2,4 C 15,8 C 6,8 km/h (2 Bft)
05.02.2014 13:50 10,6 C 41 % 1003,9 hPa 0,0 l/m 2,4 km/h (1 Bft) W-SW 247 -2,1 C 14,9 C 0,0 km/h (0 Bft)
05.02.2014 13:55 10,5 C 39 % 1003,9 hPa 0,0 l/m 1,9 km/h (1 Bft) NO 45 -2,9 C 14,4 C 1,8 km/h (1 Bft)
05.02.2014 14:00 10,1 C 40 % 1003,9 hPa 0,0 l/m 1,4 km/h (1 Bft) W-SW 247 -2,9 C 13,4 C 1,8 km/h (1 Bft)
05.02.2014 14:05 10,1 C 40 % 1003,8 hPa 0,0 l/m 1,9 km/h (1 Bft) O 90 -2,9 C 12,9 C 4,3 km/h (1 Bft)
05.02.2014 14:10 9,7 C 41 % 1003,8 hPa 0,0 l/m 2,6 km/h (1 Bft) N-NW 337 -2,9 C 12,4 C 4,3 km/h (1 Bft)
05.02.2014 14:15 9,6 C 39 % 1003,8 hPa 0,0 l/m 2,7 km/h (1 Bft) W-NW 292 -3,7 C 11,9 C 5,8 km/h (2 Bft)
05.02.2014 14:20 9,2 C 42 % 1003,8 hPa 0,0 l/m 1,6 km/h (1 Bft) NO 45 -3,0 C 11,4 C 0,0 km/h (0 Bft)
05.02.2014 14:25 8,9 C 43 % 1003,6 hPa 0,0 l/m 1,0 km/h (0 Bft) NO 45 -3,0 C 11,0 C 0,0 km/h (0 Bft)
05.02.2014 14:30 8,7 C 43 % 1003,6 hPa 0,0 l/m 1,0 km/h (0 Bft) W-NW 292 -3,2 C 10,6 C 2,6 km/h (1 Bft)
05.02.2014 14:35 8,6 C 42 % 1003,6 hPa 0,0 l/m 2,3 km/h (1 Bft) S-SW 202 -3,6 C 10,4 C 7,6 km/h (2 Bft)
05.02.2014 14:40 8,1 C 49 % 1003,6 hPa 0,0 l/m 4,0 km/h (1 Bft) SO 135 -2,0 C 9,9 C 3,7 km/h (1 Bft)
05.02.2014 14:45 7,7 C 53 % 1003,8 hPa 0,0 l/m 4,0 km/h (1 Bft) O-SO 112 -1,3 C 9,5 C 2,3 km/h (1 Bft)
05.02.2014 14:50 7,2 C 56 % 1003,8 hPa 0,0 l/m 3,7 km/h (1 Bft) SO 135 -1,0 C 8,9 C 5,0 km/h (1 Bft)
05.02.2014 14:55 7,1 C 57 % 1003,8 hPa 0,0 l/m 4,5 km/h (1 Bft) O-SO 112 -0,8 C 8,2 C 4,8 km/h (1 Bft)
05.02.2014 15:00 6,9 C 57 % 1003,8 hPa 0,0 l/m 3,9 km/h (1 Bft) S-SO 157 -1,0 C 8,1 C 5,1 km/h (1 Bft)
05.02.2014 15:05 6,6 C 57 % 1004,0 hPa 0,0 l/m 4,0 km/h (1 Bft) S-SW 202 -1,3 C 7,8 C 4,8 km/h (1 Bft)
05.02.2014 15:10 6,5 C 58 % 1004,0 hPa 0,0 l/m 3,7 km/h (1 Bft) S 180 -1,2 C 7,7 C 3,9 km/h (1 Bft)
05.02.2014 15:15 6,4 C 58 % 1004,0 hPa 0,0 l/m 2,9 km/h (1 Bft) S 180 -1,2 C 7,6 C 2,1 km/h (1 Bft)
05.02.2014 15:20 6,4 C 58 % 1004,0 hPa 0,0 l/m 2,1 km/h (1 Bft) O-SO 112 -1,2 C 7,5 C 0,0 km/h (0 Bft)
05.02.2014 15:25 6,3 C 58 % 1004,1 hPa 0,0 l/m 1,8 km/h (1 Bft) SW 225 -1,3 C 7,5 C 2,1 km/h (1 Bft)
05.02.2014 15:30 6,4 C 58 % 1004,1 hPa 0,0 l/m 2,1 km/h (1 Bft) O-SO 112 -1,2 C 7,4 C 1,8 km/h (1 Bft)
05.02.2014 15:35 6,4 C 58 % 1004,1 hPa 0,0 l/m 2,1 km/h (1 Bft) S 180 -1,2 C 7,4 C 0,0 km/h (0 Bft)
05.02.2014 15:40 6,4 C 58 % 1004,1 hPa 0,0 l/m 2,6 km/h (1 Bft) S 180 -1,2 C 7,6 C 3,4 km/h (1 Bft)
05.02.2014 15:45 6,5 C 57 % 1004,4 hPa 0,0 l/m 3,9 km/h (1 Bft) SW 225 -1,4 C 7,7 C 7,6 km/h (2 Bft)
05.02.2014 15:50 7,0 C 53 % 1004,4 hPa 0,0 l/m 5,5 km/h (1 Bft) O-SO 112 -1,9 C 7,4 C 6,6 km/h (2 Bft)
05.02.2014 15:55 7,1 C 52 % 1004,4 hPa 0,0 l/m 5,8 km/h (2 Bft) S 180 -2,1 C 7,6 C 5,3 km/h (1 Bft)
05.02.2014 16:00 7,2 C 51 % 1004,4 hPa 0,0 l/m 5,8 km/h (2 Bft) O-SO 112 -2,2 C 7,8 C 6,1 km/h (2 Bft)
05.02.2014 16:05 7,2 C 51 % 1004,5 hPa 0,0 l/m 4,7 km/h (1 Bft) NO 45 -2,2 C 8,3 C 3,9 km/h (1 Bft)
05.02.2014 16:10 7,7 C 46 % 1004,5 hPa 0,0 l/m 4,3 km/h (1 Bft) O-NO 67 -3,2 C 8,5 C 4,7 km/h (1 Bft)
05.02.2014 16:15 7,7 C 46 % 1004,5 hPa 0,0 l/m 4,3 km/h (1 Bft) SO 135 -3,2 C 8,5 C 6,1 km/h (2 Bft)
05.02.2014 16:20 7,3 C 46 % 1004,5 hPa 0,0 l/m 5,5 km/h (1 Bft) O-SO 112 -3,5 C 8,2 C 8,7 km/h (2 Bft)
05.02.2014 16:25 7,6 C 44 % 1004,7 hPa 0,0 l/m 7,9 km/h (2 Bft) S-SO 157 -3,9 C 6,4 C 11,4 km/h (2 Bft)
05.02.2014 16:30 7,5 C 45 % 1004,7 hPa 0,0 l/m 10,1 km/h (2 Bft) S 180 -3,6 C 4,5 C 18,7 km/h (3 Bft)
05.02.2014 16:35 7,0 C 47 % 1004,7 hPa 0,0 l/m 8,9 km/h (2 Bft) S 180 -3,5 C 5,4 C 5,3 km/h (1 Bft)
05.02.2014 16:40 7,4 C 45 % 1004,7 hPa 0,0 l/m 5,8 km/h (2 Bft) S 180 -3,7 C 7,9 C 6,6 km/h (2 Bft)
05.02.2014 16:45 7,1 C 47 % 1004,5 hPa 0,0 l/m 4,7 km/h (1 Bft) SO 135 -3,4 C 8,2 C 2,4 km/h (1 Bft)
05.02.2014 16:50 7,2 C 46 % 1004,5 hPa 0,0 l/m 3,2 km/h (1 Bft) O 90 -3,6 C 8,2 C 4,8 km/h (1 Bft)
05.02.2014 16:55 7,1 C 47 % 1004,5 hPa 0,0 l/m 3,2 km/h (1 Bft) O 90 -3,4 C 8,0 C 5,0 km/h (1 Bft)
05.02.2014 17:00 6,8 C 47 % 1004,5 hPa 0,0 l/m 3,9 km/h (1 Bft) NO 45 -3,7 C 7,8 C 2,9 km/h (1 Bft)
05.02.2014 17:05 6,4 C 48 % 1004,2 hPa 0,0 l/m 2,9 km/h (1 Bft) NO 45 -3,8 C 7,6 C 2,1 km/h (1 Bft)
05.02.2014 17:10 6,4 C 49 % 1004,2 hPa 0,0 l/m 1,3 km/h (1 Bft) N-NO 22 -3,5 C 7,4 C 2,1 km/h (1 Bft)
05.02.2014 17:15 5,5 C 53 % 1004,2 hPa 0,0 l/m 2,6 km/h (1 Bft) N 360 -3,3 C 7,2 C 4,8 km/h (1 Bft)
05.02.2014 17:20 5,1 C 55 % 1004,2 hPa 0,0 l/m 3,4 km/h (1 Bft) N-NO 22 -3,2 C 6,4 C 3,5 km/h (1 Bft)
05.02.2014 17:25 4,7 C 59 % 1004,7 hPa 0,0 l/m 3,9 km/h (1 Bft) NO 45 -2,6 C 6,0 C 7,4 km/h (2 Bft)
05.02.2014 17:30 4,6 C 59 % 1004,7 hPa 0,0 l/m 4,0 km/h (1 Bft) N 360 -2,7 C 5,6 C 5,1 km/h (1 Bft)
05.02.2014 17:35 4,6 C 63 % 1004,7 hPa 0,0 l/m 3,4 km/h (1 Bft) N 360 -1,8 C 5,7 C 3,5 km/h (1 Bft)
05.02.2014 17:40 4,1 C 64 % 1004,7 hPa 0,0 l/m 4,0 km/h (1 Bft) NO 45 -2,1 C 5,2 C 5,8 km/h (2 Bft)
05.02.2014 17:45 4,1 C 64 % 1004,8 hPa 0,0 l/m 4,7 km/h (1 Bft) N-NO 22 -2,1 C 4,8 C 4,5 km/h (1 Bft)
05.02.2014 17:50 4,4 C 62 % 1004,8 hPa 0,0 l/m 5,1 km/h (1 Bft) NO 45 -2,2 C 4,6 C 7,2 km/h (2 Bft)
05.02.2014 17:55 4,6 C 60 % 1004,8 hPa 0,0 l/m 5,6 km/h (1 Bft) N 360 -2,5 C 4,7 C 6,6 km/h (2 Bft)
05.02.2014 18:00 4,5 C 59 % 1004,8 hPa 0,0 l/m 5,6 km/h (1 Bft) NO 45 -2,8 C 4,7 C 5,5 km/h (1 Bft)
05.02.2014 18:05 4,4 C 59 % 1005,0 hPa 0,0 l/m 4,8 km/h (1 Bft) N 360 -2,9 C 4,9 C 8,7 km/h (2 Bft)
05.02.2014 18:10 4,3 C 59 % 1005,0 hPa 0,0 l/m 4,3 km/h (1 Bft) S 180 -3,0 C 5,0 C 3,2 km/h (1 Bft)
05.02.2014 18:15 4,1 C 60 % 1005,0 hPa 0,0 l/m 4,0 km/h (1 Bft) N-NO 22 -3,0 C 4,9 C 4,8 km/h (1 Bft)
05.02.2014 18:20 3,8 C 61 % 1005,0 hPa 0,0 l/m 2,1 km/h (1 Bft) N-NO 22 -3,0 C 5,3 C 0,0 km/h (0 Bft)
05.02.2014 18:25 3,4 C 61 % 1005,0 hPa 0,0 l/m 1,0 km/h (0 Bft) N-NO 22 -3,4 C 5,1 C 0,0 km/h (0 Bft)
05.02.2014 18:30 3,3 C 63 % 1005,0 hPa 0,0 l/m 1,4 km/h (1 Bft) S 180 -3,1 C 4,6 C 3,1 km/h (1 Bft)
05.02.2014 18:35 3,2 C 64 % 1005,0 hPa 0,0 l/m 2,1 km/h (1 Bft) S-SW 202 -2,9 C 4,4 C 4,7 km/h (1 Bft)
05.02.2014 18:40 3,4 C 66 % 1005,0 hPa 0,0 l/m 3,1 km/h (1 Bft) NO 45 -2,3 C 3,9 C 3,7 km/h (1 Bft)
05.02.2014 18:45 3,3 C 66 % 1005,5 hPa 0,0 l/m 2,4 km/h (1 Bft) NO 45 -2,4 C 3,9 C 0,0 km/h (0 Bft)
05.02.2014 18:50 3,2 C 67 % 1005,5 hPa 0,0 l/m 1,1 km/h (1 Bft) O-SO 112 -2,3 C 3,8 C 0,0 km/h (0 Bft)
05.02.2014 18:55 3,2 C 67 % 1005,5 hPa 0,0 l/m 1,6 km/h (1 Bft) O 90 -2,3 C 3,6 C 4,0 km/h (1 Bft)
05.02.2014 18:58 3,4 C 67 % 1005,5 hPa 0,0 l/m 3,1 km/h (1 Bft) NO 45 -2,1 C 3,3 C 7,6 km/h (2 Bft)
05.02.2014 19:00 3,4 C 67 % 1005,5 hPa 0,0 l/m 3,1 km/h (1 Bft) NO 45 -2,1 C 3,3 C 7,6 km/h (2 Bft)
05.02.2014 19:05 3,5 C 66 % 1005,6 hPa 0,0 l/m 4,5 km/h (1 Bft) O 90 -2,2 C 2,4 C 6,6 km/h (2 Bft)
05.02.2014 19:10 3,7 C 65 % 1005,6 hPa 0,0 l/m 5,8 km/h (2 Bft) O-NO 67 -2,3 C 2,3 C 7,6 km/h (2 Bft)
05.02.2014 19:15 3,6 C 65 % 1005,6 hPa 0,0 l/m 6,1 km/h (2 Bft) NO 45 -2,4 C 2,4 C 6,4 km/h (2 Bft)
05.02.2014 19:20 3,4 C 65 % 1005,6 hPa 0,0 l/m 6,6 km/h (2 Bft) O 90 -2,5 C 2,1 C 2,9 km/h (1 Bft)
05.02.2014 19:25 2,9 C 67 % 1005,9 hPa 0,0 l/m 5,1 km/h (1 Bft) O-SO 112 -2,6 C 2,6 C 5,0 km/h (1 Bft)
05.02.2014 19:30 3,1 C 68 % 1005,9 hPa 0,0 l/m 4,3 km/h (1 Bft) O-NO 67 -2,2 C 2,7 C 6,1 km/h (2 Bft)
05.02.2014 19:35 2,9 C 69 % 1005,9 hPa 0,0 l/m 5,8 km/h (2 Bft) S-SO 157 -2,2 C 2,2 C 6,4 km/h (2 Bft)
05.02.2014 19:40 3,7 C 65 % 1005,9 hPa 0,0 l/m 7,7 km/h (2 Bft) S 180 -2,3 C 0,4 C 11,6 km/h (2 Bft)
05.02.2014 19:45 3,9 C 64 % 1006,6 hPa 0,0 l/m 8,7 km/h (2 Bft) S 180 -2,3 C 0,0 C 18,7 km/h (3 Bft)
05.02.2014 19:50 3,8 C 65 % 1006,6 hPa 0,0 l/m 11,1 km/h (2 Bft) N-NO 22 -2,2 C -2,0 C 20,6 km/h (4 Bft)
05.02.2014 19:55 3,7 C 66 % 1006,6 hPa 0,0 l/m 12,6 km/h (3 Bft) S 180 -2,0 C -3,4 C 14,6 km/h (3 Bft)
05.02.2014 20:00 3,5 C 68 % 1006,6 hPa 0,0 l/m 12,2 km/h (2 Bft) S 180 -1,8 C -3,5 C 19,3 km/h (3 Bft)
05.02.2014 20:05 3,4 C 69 % 1007,0 hPa 0,0 l/m 11,9 km/h (2 Bft) S-SO 157 -1,7 C -3,2 C 11,3 km/h (2 Bft)
05.02.2014 20:10 3,4 C 69 % 1007,0 hPa 0,0 l/m 9,8 km/h (2 Bft) S-SW 202 -1,7 C -1,3 C 7,6 km/h (2 Bft)
05.02.2014 20:15 3,2 C 70 % 1007,0 hPa 0,0 l/m 7,7 km/h (2 Bft) S-SO 157 -1,7 C 0,8 C 8,0 km/h (2 Bft)
05.02.2014 20:20 3,2 C 70 % 1007,0 hPa 0,0 l/m 6,1 km/h (2 Bft) S 180 -1,7 C 2,5 C 6,4 km/h (2 Bft)
05.02.2014 20:25 3,1 C 70 % 1007,1 hPa 0,0 l/m 5,6 km/h (1 Bft) S 180 -1,8 C 2,6 C 3,7 km/h (1 Bft)
05.02.2014 20:30 2,9 C 72 % 1007,1 hPa 0,0 l/m 4,7 km/h (1 Bft) S 180 -1,6 C 2,8 C 2,3 km/h (1 Bft)
05.02.2014 20:35 2,9 C 72 % 1007,1 hPa 0,0 l/m 4,3 km/h (1 Bft) O-SO 112 -1,6 C 2,8 C 4,7 km/h (1 Bft)
05.02.2014 20:40 2,8 C 73 % 1007,1 hPa 0,0 l/m 4,2 km/h (1 Bft) O-SO 112 -1,5 C 2,7 C 6,9 km/h (2 Bft)
05.02.2014 20:45 2,8 C 73 % 1007,5 hPa 0,0 l/m 4,5 km/h (1 Bft) S-SO 157 -1,5 C 2,6 C 4,5 km/h (1 Bft)
05.02.2014 20:50 2,8 C 75 % 1007,5 hPa 0,0 l/m 5,6 km/h (1 Bft) S 180 -1,2 C 1,9 C 8,9 km/h (2 Bft)
05.02.2014 20:55 2,8 C 76 % 1007,5 hPa 0,0 l/m 6,8 km/h (2 Bft) S 180 -1,0 C 1,0 C 9,8 km/h (2 Bft)
05.02.2014 21:00 2,7 C 77 % 1007,5 hPa 0,0 l/m 7,9 km/h (2 Bft) S 180 -0,9 C -0,4 C 7,2 km/h (2 Bft)
05.02.2014 21:05 2,7 C 77 % 1007,6 hPa 0,0 l/m 7,7 km/h (2 Bft) S 180 -0,9 C -0,2 C 12,6 km/h (3 Bft)
05.02.2014 21:10 2,7 C 78 % 1007,6 hPa 0,0 l/m 8,9 km/h (2 Bft) S 180 -0,7 C -1,6 C 11,4 km/h (2 Bft)
05.02.2014 21:15 2,7 C 78 % 1007,6 hPa 0,0 l/m 9,7 km/h (2 Bft) S-SO 157 -0,7 C -2,5 C 10,6 km/h (2 Bft)
05.02.2014 21:20 2,7 C 78 % 1007,6 hPa 0,0 l/m 8,5 km/h (2 Bft) W-NW 292 -0,7 C -1,1 C 4,8 km/h (1 Bft)
05.02.2014 21:25 2,8 C 78 % 1007,9 hPa 0,0 l/m 7,2 km/h (2 Bft) O 90 -0,6 C 0,4 C 6,6 km/h (2 Bft)
05.02.2014 21:30 2,7 C 78 % 1007,9 hPa 0,0 l/m 6,6 km/h (2 Bft) S 180 -0,7 C 1,2 C 12,4 km/h (3 Bft)
05.02.2014 21:35 2,6 C 78 % 1007,9 hPa 0,0 l/m 5,8 km/h (2 Bft) S 180 -0,8 C 1,6 C 5,6 km/h (1 Bft)
05.02.2014 21:40 2,6 C 78 % 1007,9 hPa 0,0 l/m 5,3 km/h (1 Bft) S-SO 157 -0,8 C 1,7 C 3,9 km/h (1 Bft)
05.02.2014 21:45 2,6 C 78 % 1008,1 hPa 0,0 l/m 5,5 km/h (1 Bft) S-SO 157 -0,8 C 1,6 C 5,3 km/h (1 Bft)
05.02.2014 21:50 2,5 C 78 % 1008,1 hPa 0,0 l/m 5,3 km/h (1 Bft) SO 135 -0,9 C 1,6 C 4,0 km/h (1 Bft)
05.02.2014 21:55 2,5 C 78 % 1008,1 hPa 0,0 l/m 5,0 km/h (1 Bft) O-SO 112 -0,9 C 1,7 C 7,4 km/h (2 Bft)
05.02.2014 22:00 2,6 C 79 % 1008,1 hPa 0,0 l/m 6,0 km/h (2 Bft) S 180 -0,7 C 1,3 C 7,9 km/h (2 Bft)
05.02.2014 22:05 2,6 C 78 % 1008,3 hPa 0,0 l/m 7,2 km/h (2 Bft) S 180 -0,8 C 0,2 C 11,1 km/h (2 Bft)
05.02.2014 22:10 2,7 C 78 % 1008,3 hPa 0,0 l/m 9,3 km/h (2 Bft) S 180 -0,7 C -2,1 C 10,0 km/h (2 Bft)
05.02.2014 22:15 2,7 C 78 % 1008,3 hPa 0,0 l/m 10,3 km/h (2 Bft) S 180 -0,7 C -3,0 C 12,4 km/h (3 Bft)
05.02.2014 22:20 2,8 C 78 % 1008,3 hPa 0,0 l/m 10,0 km/h (2 Bft) S 180 -0,6 C -2,8 C 9,7 km/h (2 Bft)
05.02.2014 22:25 2,7 C 78 % 1008,3 hPa 0,0 l/m 9,3 km/h (2 Bft) S-SO 157 -0,7 C -2,0 C 10,8 km/h (2 Bft)
05.02.2014 22:30 2,8 C 78 % 1008,3 hPa 0,0 l/m 9,2 km/h (2 Bft) S-SO 157 -0,6 C -1,9 C 12,7 km/h (3 Bft)
05.02.2014 22:35 2,7 C 78 % 1008,3 hPa 0,0 l/m 10,0 km/h (2 Bft) S-SW 202 -0,7 C -2,8 C 13,0 km/h (3 Bft)
05.02.2014 22:40 2,7 C 78 % 1008,3 hPa 0,0 l/m 7,9 km/h (2 Bft) SO 135 -0,7 C -0,4 C 6,0 km/h (2 Bft)
05.02.2014 22:45 2,6 C 78 % 1008,6 hPa 0,0 l/m 6,1 km/h (2 Bft) S 180 -0,8 C 1,5 C 3,7 km/h (1 Bft)
05.02.2014 22:50 2,7 C 78 % 1008,6 hPa 0,0 l/m 6,3 km/h (2 Bft) W-SW 247 -0,7 C 1,4 C 12,4 km/h (3 Bft)
05.02.2014 22:55 2,7 C 78 % 1008,6 hPa 0,0 l/m 6,4 km/h (2 Bft) O-SO 112 -0,7 C 1,4 C 7,6 km/h (2 Bft)
05.02.2014 23:00 2,6 C 78 % 1008,6 hPa 0,0 l/m 6,1 km/h (2 Bft) O 90 -0,8 C 1,4 C 5,0 km/h (1 Bft)
05.02.2014 23:05 2,6 C 78 % 1008,8 hPa 0,0 l/m 6,4 km/h (2 Bft) S-SO 157 -0,8 C 1,2 C 12,9 km/h (3 Bft)
05.02.2014 23:10 2,6 C 78 % 1008,8 hPa 0,0 l/m 7,4 km/h (2 Bft) S 180 -0,8 C 0,1 C 9,7 km/h (2 Bft)
05.02.2014 23:15 2,6 C 78 % 1008,8 hPa 0,0 l/m 8,2 km/h (2 Bft) S 180 -0,8 C -1,0 C 16,1 km/h (3 Bft)
05.02.2014 23:20 2,6 C 78 % 1008,8 hPa 0,0 l/m 8,4 km/h (2 Bft) O-SO 112 -0,8 C -1,1 C 7,4 km/h (2 Bft)
05.02.2014 23:25 2,6 C 78 % 1008,9 hPa 0,0 l/m 7,6 km/h (2 Bft) SO 135 -0,8 C -0,3 C 9,2 km/h (2 Bft)
05.02.2014 23:30 2,6 C 78 % 1008,9 hPa 0,0 l/m 8,4 km/h (2 Bft) S-SO 157 -0,8 C -1,2 C 12,7 km/h (3 Bft)
05.02.2014 23:35 2,5 C 78 % 1008,9 hPa 0,0 l/m 8,7 km/h (2 Bft) S 180 -0,9 C -1,7 C 7,4 km/h (2 Bft)
05.02.2014 23:40 2,4 C 78 % 1008,9 hPa 0,0 l/m 7,6 km/h (2 Bft) O-SO 112 -1,0 C -0,4 C 9,0 km/h (2 Bft)
05.02.2014 23:45 2,4 C 78 % 1009,1 hPa 0,0 l/m 8,5 km/h (2 Bft) S 180 -1,0 C -1,6 C 7,6 km/h (2 Bft)
05.02.2014 23:50 2,3 C 78 % 1009,1 hPa 0,0 l/m 8,0 km/h (2 Bft) S 180 -1,1 C -1,0 C 12,9 km/h (3 Bft)
05.02.2014 23:55 2,3 C 78 % 1009,1 hPa 0,0 l/m 7,6 km/h (2 Bft) S-SO 157 -1,1 C -0,4 C 13,7 km/h (3 Bft)
_ Min-Zeit 03:55 12:40 14:40 - 05:40 - - 03:35 02:25 18:50
Minimum _ -4,4 C 37 % 1003,6 hPa - 0,0 km/h (0 Bft) - - -5,4 C -4,4 C 0,0 km/h (0 Bft)
_ Max-Zeit 12:35 06:55 23:55 23:55 19:55 - - 10:15 13:25 19:50
Maximum _ 11,2 C 94 % 1009,1 hPa 0,0 l/m 12,6 km/h
S (3 Bft)
- - 3,4 C 18,2 C 20,6 km/h
N-NO (4 Bft)
Durchschnitt _ 2,7 C 71 % 1005,8 hPa #0,0 l/m 3,6 km/h (1 Bft) S - -2,5 C 2,8 C 4,7 km/h (1 Bft)